sensor_id;sensor_type;location;lat;lon;timestamp;P1;durP1;ratioP1;P2;durP2;ratioP2
16820;SDS011;8527;49.740;6.604;2024-03-25T00:02:36;2.83;;;1.63;;
16820;SDS011;8527;49.740;6.604;2024-03-25T00:07:31;3.15;;;1.95;;
16820;SDS011;8527;49.740;6.604;2024-03-25T00:12:31;4.57;;;2.10;;
16820;SDS011;8527;49.740;6.604;2024-03-25T00:17:29;5.30;;;1.90;;
16820;SDS011;8527;49.740;6.604;2024-03-25T00:22:26;4.65;;;2.47;;
16820;SDS011;8527;49.740;6.604;2024-03-25T00:27:22;3.93;;;2.27;;
16820;SDS011;8527;49.740;6.604;2024-03-25T00:32:18;2.10;;;1.90;;
16820;SDS011;8527;49.740;6.604;2024-03-25T00:37:17;2.80;;;1.77;;
16820;SDS011;8527;49.740;6.604;2024-03-25T00:42:13;2.65;;;1.83;;
16820;SDS011;8527;49.740;6.604;2024-03-25T00:47:09;2.78;;;2.10;;
16820;SDS011;8527;49.740;6.604;2024-03-25T00:57:05;3.15;;;2.00;;
16820;SDS011;8527;49.740;6.604;2024-03-25T01:02:04;4.03;;;2.13;;
16820;SDS011;8527;49.740;6.604;2024-03-25T01:07:00;5.63;;;2.70;;
16820;SDS011;8527;49.740;6.604;2024-03-25T01:11:56;3.72;;;2.13;;
16820;SDS011;8527;49.740;6.604;2024-03-25T01:16:55;4.82;;;2.38;;
16820;SDS011;8527;49.740;6.604;2024-03-25T01:21:51;4.97;;;2.50;;
16820;SDS011;8527;49.740;6.604;2024-03-25T01:26:50;4.65;;;2.67;;
16820;SDS011;8527;49.740;6.604;2024-03-25T01:31:45;3.65;;;1.92;;
16820;SDS011;8527;49.740;6.604;2024-03-25T01:36:44;5.32;;;2.38;;
16820;SDS011;8527;49.740;6.604;2024-03-25T01:41:42;5.32;;;2.38;;
16820;SDS011;8527;49.740;6.604;2024-03-25T01:46:42;6.60;;;2.80;;
16820;SDS011;8527;49.740;6.604;2024-03-25T01:51:38;2.67;;;2.00;;
16820;SDS011;8527;49.740;6.604;2024-03-25T01:56:44;6.10;;;2.40;;
16820;SDS011;8527;49.740;6.604;2024-03-25T02:01:41;4.90;;;2.60;;
16820;SDS011;8527;49.740;6.604;2024-03-25T02:06:37;6.43;;;2.33;;
16820;SDS011;8527;49.740;6.604;2024-03-25T02:11:39;4.20;;;2.20;;
16820;SDS011;8527;49.740;6.604;2024-03-25T02:16:43;4.72;;;2.70;;
16820;SDS011;8527;49.740;6.604;2024-03-25T02:21:39;3.33;;;2.58;;
16820;SDS011;8527;49.740;6.604;2024-03-25T02:26:43;5.20;;;2.17;;
16820;SDS011;8527;49.740;6.604;2024-03-25T02:31:39;4.28;;;2.30;;
16820;SDS011;8527;49.740;6.604;2024-03-25T02:36:35;6.43;;;2.42;;
16820;SDS011;8527;49.740;6.604;2024-03-25T02:41:31;3.35;;;2.10;;
16820;SDS011;8527;49.740;6.604;2024-03-25T02:46:29;7.07;;;2.85;;
16820;SDS011;8527;49.740;6.604;2024-03-25T02:51:28;7.93;;;2.45;;
16820;SDS011;8527;49.740;6.604;2024-03-25T02:56:23;8.35;;;2.72;;
16820;SDS011;8527;49.740;6.604;2024-03-25T03:01:19;7.20;;;2.90;;
16820;SDS011;8527;49.740;6.604;2024-03-25T03:06:21;5.03;;;2.50;;
16820;SDS011;8527;49.740;6.604;2024-03-25T03:11:17;5.20;;;2.50;;
16820;SDS011;8527;49.740;6.604;2024-03-25T03:16:20;5.85;;;2.75;;
16820;SDS011;8527;49.740;6.604;2024-03-25T03:21:17;4.93;;;2.72;;
16820;SDS011;8527;49.740;6.604;2024-03-25T03:26:15;4.13;;;2.67;;
16820;SDS011;8527;49.740;6.604;2024-03-25T03:31:14;7.57;;;3.00;;
16820;SDS011;8527;49.740;6.604;2024-03-25T03:36:10;4.05;;;2.95;;
16820;SDS011;8527;49.740;6.604;2024-03-25T03:41:06;3.72;;;2.28;;
16820;SDS011;8527;49.740;6.604;2024-03-25T03:46:04;4.10;;;2.50;;
16820;SDS011;8527;49.740;6.604;2024-03-25T03:51:00;3.97;;;2.22;;
16820;SDS011;8527;49.740;6.604;2024-03-25T04:00:54;6.13;;;2.80;;
16820;SDS011;8527;49.740;6.604;2024-03-25T04:05:56;4.53;;;2.50;;
16820;SDS011;8527;49.740;6.604;2024-03-25T04:10:54;6.22;;;2.60;;
16820;SDS011;8527;49.740;6.604;2024-03-25T04:15:50;6.53;;;3.08;;
16820;SDS011;8527;49.740;6.604;2024-03-25T04:20:46;6.30;;;3.10;;
16820;SDS011;8527;49.740;6.604;2024-03-25T04:25:47;8.52;;;3.30;;
16820;SDS011;8527;49.740;6.604;2024-03-25T04:30:43;8.15;;;2.90;;
16820;SDS011;8527;49.740;6.604;2024-03-25T04:35:46;5.35;;;2.65;;
16820;SDS011;8527;49.740;6.604;2024-03-25T04:40:42;6.22;;;2.97;;
16820;SDS011;8527;49.740;6.604;2024-03-25T04:45:42;6.27;;;3.43;;
16820;SDS011;8527;49.740;6.604;2024-03-25T04:50:41;6.72;;;3.17;;
16820;SDS011;8527;49.740;6.604;2024-03-25T04:55:42;7.18;;;3.15;;
16820;SDS011;8527;49.740;6.604;2024-03-25T05:00:38;6.63;;;3.28;;
16820;SDS011;8527;49.740;6.604;2024-03-25T05:05:37;5.30;;;3.00;;
16820;SDS011;8527;49.740;6.604;2024-03-25T05:10:36;4.45;;;2.78;;
16820;SDS011;8527;49.740;6.604;2024-03-25T05:15:33;7.35;;;2.92;;
16820;SDS011;8527;49.740;6.604;2024-03-25T05:20:31;10.38;;;3.50;;
16820;SDS011;8527;49.740;6.604;2024-03-25T05:25:27;5.90;;;2.67;;
16820;SDS011;8527;49.740;6.604;2024-03-25T05:30:23;9.77;;;3.20;;
16820;SDS011;8527;49.740;6.604;2024-03-25T05:35:19;8.68;;;3.20;;
16820;SDS011;8527;49.740;6.604;2024-03-25T05:40:17;12.63;;;4.53;;
16820;SDS011;8527;49.740;6.604;2024-03-25T05:45:13;10.25;;;3.83;;
16820;SDS011;8527;49.740;6.604;2024-03-25T05:50:10;10.68;;;3.78;;
16820;SDS011;8527;49.740;6.604;2024-03-25T05:55:06;7.80;;;4.50;;
16820;SDS011;8527;49.740;6.604;2024-03-25T06:00:06;14.70;;;5.20;;
16820;SDS011;8527;49.740;6.604;2024-03-25T06:05:04;13.07;;;6.55;;
16820;SDS011;8527;49.740;6.604;2024-03-25T06:10:00;9.45;;;4.90;;
16820;SDS011;8527;49.740;6.604;2024-03-25T06:14:56;13.00;;;4.30;;
16820;SDS011;8527;49.740;6.604;2024-03-25T06:19:55;7.38;;;3.95;;
16820;SDS011;8527;49.740;6.604;2024-03-25T06:24:50;9.45;;;4.63;;
16820;SDS011;8527;49.740;6.604;2024-03-25T06:29:46;9.85;;;4.07;;
16820;SDS011;8527;49.740;6.604;2024-03-25T06:34:42;11.13;;;4.45;;
16820;SDS011;8527;49.740;6.604;2024-03-25T06:39:41;8.73;;;4.28;;
16820;SDS011;8527;49.740;6.604;2024-03-25T06:44:39;14.57;;;5.85;;
16820;SDS011;8527;49.740;6.604;2024-03-25T06:49:38;9.25;;;5.05;;
16820;SDS011;8527;49.740;6.604;2024-03-25T06:54:38;12.57;;;4.90;;
16820;SDS011;8527;49.740;6.604;2024-03-25T06:59:37;11.65;;;5.25;;
16820;SDS011;8527;49.740;6.604;2024-03-25T07:04:32;14.02;;;6.85;;
16820;SDS011;8527;49.740;6.604;2024-03-25T07:09:28;10.30;;;5.47;;
16820;SDS011;8527;49.740;6.604;2024-03-25T07:14:27;12.30;;;5.45;;
16820;SDS011;8527;49.740;6.604;2024-03-25T07:19:23;7.65;;;4.47;;
16820;SDS011;8527;49.740;6.604;2024-03-25T07:24:20;10.53;;;4.43;;
16820;SDS011;8527;49.740;6.604;2024-03-25T07:29:16;10.45;;;4.40;;
16820;SDS011;8527;49.740;6.604;2024-03-25T07:34:15;12.85;;;4.25;;
16820;SDS011;8527;49.740;6.604;2024-03-25T07:39:13;9.75;;;3.90;;
16820;SDS011;8527;49.740;6.604;2024-03-25T07:44:09;9.65;;;4.30;;
16820;SDS011;8527;49.740;6.604;2024-03-25T07:49:07;14.73;;;4.50;;
16820;SDS011;8527;49.740;6.604;2024-03-25T07:54:06;11.25;;;4.57;;
16820;SDS011;8527;49.740;6.604;2024-03-25T07:59:02;11.75;;;4.35;;
16820;SDS011;8527;49.740;6.604;2024-03-25T08:03:58;10.65;;;4.57;;
16820;SDS011;8527;49.740;6.604;2024-03-25T08:08:54;9.05;;;4.80;;
16820;SDS011;8527;49.740;6.604;2024-03-25T08:13:53;14.70;;;5.07;;
16820;SDS011;8527;49.740;6.604;2024-03-25T08:18:49;9.50;;;4.57;;
16820;SDS011;8527;49.740;6.604;2024-03-25T08:23:45;8.43;;;4.40;;
16820;SDS011;8527;49.740;6.604;2024-03-25T08:28:41;12.30;;;4.63;;
16820;SDS011;8527;49.740;6.604;2024-03-25T08:33:40;9.57;;;4.55;;
16820;SDS011;8527;49.740;6.604;2024-03-25T08:38:35;11.48;;;4.60;;
16820;SDS011;8527;49.740;6.604;2024-03-25T08:43:32;11.23;;;4.68;;
16820;SDS011;8527;49.740;6.604;2024-03-25T08:48:27;8.45;;;4.07;;
16820;SDS011;8527;49.740;6.604;2024-03-25T08:53:26;12.57;;;4.85;;
16820;SDS011;8527;49.740;6.604;2024-03-25T08:58:21;9.90;;;4.10;;
16820;SDS011;8527;49.740;6.604;2024-03-25T09:03:17;10.10;;;4.25;;
16820;SDS011;8527;49.740;6.604;2024-03-25T09:08:14;9.20;;;4.43;;
16820;SDS011;8527;49.740;6.604;2024-03-25T09:13:13;9.80;;;4.15;;
16820;SDS011;8527;49.740;6.604;2024-03-25T09:18:09;9.43;;;4.22;;
16820;SDS011;8527;49.740;6.604;2024-03-25T09:23:05;17.17;;;4.03;;
16820;SDS011;8527;49.740;6.604;2024-03-25T09:28:06;9.73;;;4.45;;
16820;SDS011;8527;49.740;6.604;2024-03-25T09:33:05;6.53;;;3.75;;
16820;SDS011;8527;49.740;6.604;2024-03-25T09:38:01;9.45;;;4.10;;
16820;SDS011;8527;49.740;6.604;2024-03-25T09:42:56;9.20;;;3.90;;
16820;SDS011;8527;49.740;6.604;2024-03-25T09:47:52;10.73;;;4.50;;
16820;SDS011;8527;49.740;6.604;2024-03-25T09:52:53;9.43;;;3.78;;
16820;SDS011;8527;49.740;6.604;2024-03-25T09:57:51;9.07;;;3.95;;
16820;SDS011;8527;49.740;6.604;2024-03-25T10:02:47;10.05;;;3.65;;
16820;SDS011;8527;49.740;6.604;2024-03-25T10:07:43;10.60;;;3.70;;
16820;SDS011;8527;49.740;6.604;2024-03-25T10:12:42;9.43;;;3.70;;
16820;SDS011;8527;49.740;6.604;2024-03-25T10:17:40;11.27;;;3.63;;
16820;SDS011;8527;49.740;6.604;2024-03-25T10:22:40;9.27;;;4.23;;
16820;SDS011;8527;49.740;6.604;2024-03-25T10:27:36;11.15;;;4.70;;
16820;SDS011;8527;49.740;6.604;2024-03-25T10:32:35;17.33;;;5.07;;
16820;SDS011;8527;49.740;6.604;2024-03-25T10:37:33;8.57;;;4.60;;
16820;SDS011;8527;49.740;6.604;2024-03-25T10:42:32;13.00;;;5.40;;
16820;SDS011;8527;49.740;6.604;2024-03-25T10:47:38;9.65;;;4.63;;
16820;SDS011;8527;49.740;6.604;2024-03-25T10:52:37;8.32;;;4.60;;
16820;SDS011;8527;49.740;6.604;2024-03-25T10:57:33;10.47;;;4.53;;
16820;SDS011;8527;49.740;6.604;2024-03-25T11:02:30;11.15;;;4.97;;
16820;SDS011;8527;49.740;6.604;2024-03-25T11:07:30;12.45;;;5.30;;
16820;SDS011;8527;49.740;6.604;2024-03-25T11:12:31;10.82;;;5.38;;
16820;SDS011;8527;49.740;6.604;2024-03-25T11:17:27;13.48;;;5.25;;
16820;SDS011;8527;49.740;6.604;2024-03-25T11:22:28;12.55;;;5.20;;
16820;SDS011;8527;49.740;6.604;2024-03-25T11:27:26;11.52;;;4.80;;
16820;SDS011;8527;49.740;6.604;2024-03-25T11:32:22;11.23;;;4.07;;
16820;SDS011;8527;49.740;6.604;2024-03-25T11:37:23;7.00;;;3.67;;
16820;SDS011;8527;49.740;6.604;2024-03-25T11:42:22;6.82;;;3.63;;
16820;SDS011;8527;49.740;6.604;2024-03-25T11:47:20;6.63;;;3.72;;
16820;SDS011;8527;49.740;6.604;2024-03-25T11:52:16;5.93;;;3.33;;
16820;SDS011;8527;49.740;6.604;2024-03-25T11:57:12;6.63;;;3.38;;
16820;SDS011;8527;49.740;6.604;2024-03-25T12:02:11;6.40;;;2.83;;
16820;SDS011;8527;49.740;6.604;2024-03-25T12:07:07;5.82;;;3.13;;
16820;SDS011;8527;49.740;6.604;2024-03-25T12:12:03;4.77;;;3.00;;
16820;SDS011;8527;49.740;6.604;2024-03-25T12:17:02;8.10;;;3.28;;
16820;SDS011;8527;49.740;6.604;2024-03-25T12:22:04;5.43;;;2.85;;
16820;SDS011;8527;49.740;6.604;2024-03-25T12:27:08;5.05;;;2.80;;
16820;SDS011;8527;49.740;6.604;2024-03-25T12:32:04;5.90;;;3.20;;
16820;SDS011;8527;49.740;6.604;2024-03-25T12:42:00;7.65;;;3.20;;
16820;SDS011;8527;49.740;6.604;2024-03-25T12:46:59;5.72;;;2.88;;
16820;SDS011;8527;49.740;6.604;2024-03-25T12:51:56;7.75;;;3.08;;
16820;SDS011;8527;49.740;6.604;2024-03-25T12:56:54;7.53;;;2.87;;
16820;SDS011;8527;49.740;6.604;2024-03-25T13:01:50;3.70;;;2.80;;
16820;SDS011;8527;49.740;6.604;2024-03-25T13:06:46;4.80;;;2.70;;
16820;SDS011;8527;49.740;6.604;2024-03-25T13:11:42;4.57;;;2.50;;
16820;SDS011;8527;49.740;6.604;2024-03-25T13:16:43;5.68;;;2.13;;
16820;SDS011;8527;49.740;6.604;2024-03-25T13:21:41;6.22;;;2.33;;
16820;SDS011;8527;49.740;6.604;2024-03-25T13:26:37;4.30;;;2.03;;
16820;SDS011;8527;49.740;6.604;2024-03-25T13:31:36;4.70;;;2.23;;
16820;SDS011;8527;49.740;6.604;2024-03-25T13:36:36;5.15;;;2.30;;
16820;SDS011;8527;49.740;6.604;2024-03-25T13:41:32;6.03;;;2.10;;
16820;SDS011;8527;49.740;6.604;2024-03-25T13:46:27;6.07;;;2.13;;
16820;SDS011;8527;49.740;6.604;2024-03-25T13:51:23;5.22;;;2.40;;
16820;SDS011;8527;49.740;6.604;2024-03-25T13:56:21;2.87;;;1.97;;
16820;SDS011;8527;49.740;6.604;2024-03-25T14:01:17;6.10;;;2.03;;
16820;SDS011;8527;49.740;6.604;2024-03-25T14:06:13;4.17;;;1.83;;
16820;SDS011;8527;49.740;6.604;2024-03-25T14:11:09;4.22;;;1.90;;
16820;SDS011;8527;49.740;6.604;2024-03-25T14:16:08;3.90;;;2.30;;
16820;SDS011;8527;49.740;6.604;2024-03-25T14:21:07;5.10;;;2.60;;
16820;SDS011;8527;49.740;6.604;2024-03-25T14:26:03;5.50;;;2.60;;
16820;SDS011;8527;49.740;6.604;2024-03-25T14:31:02;4.95;;;2.10;;
16820;SDS011;8527;49.740;6.604;2024-03-25T14:36:01;8.00;;;2.77;;
16820;SDS011;8527;49.740;6.604;2024-03-25T14:40:57;3.25;;;2.40;;
16820;SDS011;8527;49.740;6.604;2024-03-25T14:45:53;5.28;;;2.03;;
16820;SDS011;8527;49.740;6.604;2024-03-25T14:50:49;4.80;;;2.20;;
16820;SDS011;8527;49.740;6.604;2024-03-25T14:55:47;4.63;;;2.55;;
16820;SDS011;8527;49.740;6.604;2024-03-25T15:00:43;3.65;;;2.10;;
16820;SDS011;8527;49.740;6.604;2024-03-25T15:05:39;4.72;;;1.80;;
16820;SDS011;8527;49.740;6.604;2024-03-25T15:10:35;4.90;;;1.88;;
16820;SDS011;8527;49.740;6.604;2024-03-25T15:15:34;4.55;;;1.92;;
16820;SDS011;8527;49.740;6.604;2024-03-25T15:20:38;4.22;;;1.55;;
16820;SDS011;8527;49.740;6.604;2024-03-25T15:25:36;2.67;;;1.80;;
16820;SDS011;8527;49.740;6.604;2024-03-25T15:30:34;2.83;;;1.80;;
16820;SDS011;8527;49.740;6.604;2024-03-25T15:35:30;3.33;;;1.80;;
16820;SDS011;8527;49.740;6.604;2024-03-25T15:40:26;4.38;;;1.70;;
16820;SDS011;8527;49.740;6.604;2024-03-25T15:45:22;2.93;;;1.63;;
16820;SDS011;8527;49.740;6.604;2024-03-25T15:50:21;2.77;;;1.70;;
16820;SDS011;8527;49.740;6.604;2024-03-25T15:55:17;5.95;;;1.88;;
16820;SDS011;8527;49.740;6.604;2024-03-25T16:00:24;3.40;;;2.10;;
16820;SDS011;8527;49.740;6.604;2024-03-25T16:05:24;3.45;;;1.77;;
16820;SDS011;8527;49.740;6.604;2024-03-25T16:10:22;2.40;;;1.80;;
16820;SDS011;8527;49.740;6.604;2024-03-25T16:15:21;2.38;;;1.55;;
16820;SDS011;8527;49.740;6.604;2024-03-25T16:20:17;4.05;;;1.85;;
16820;SDS011;8527;49.740;6.604;2024-03-25T16:25:16;3.25;;;2.20;;
16820;SDS011;8527;49.740;6.604;2024-03-25T16:30:15;5.85;;;1.80;;
16820;SDS011;8527;49.740;6.604;2024-03-25T16:35:11;4.50;;;1.98;;
16820;SDS011;8527;49.740;6.604;2024-03-25T16:40:30;4.07;;;1.80;;
16820;SDS011;8527;49.740;6.604;2024-03-25T16:45:26;3.13;;;1.58;;
16820;SDS011;8527;49.740;6.604;2024-03-25T16:50:24;2.55;;;2.00;;
16820;SDS011;8527;49.740;6.604;2024-03-25T16:55:23;3.10;;;2.10;;
16820;SDS011;8527;49.740;6.604;2024-03-25T17:00:21;4.95;;;2.17;;
16820;SDS011;8527;49.740;6.604;2024-03-25T17:05:17;3.00;;;2.08;;
16820;SDS011;8527;49.740;6.604;2024-03-25T17:10:13;4.80;;;1.63;;
16820;SDS011;8527;49.740;6.604;2024-03-25T17:15:09;5.53;;;2.03;;
16820;SDS011;8527;49.740;6.604;2024-03-25T17:20:09;5.28;;;2.10;;
16820;SDS011;8527;49.740;6.604;2024-03-25T17:25:10;4.40;;;2.10;;
16820;SDS011;8527;49.740;6.604;2024-03-25T17:30:09;4.13;;;3.20;;
16820;SDS011;8527;49.740;6.604;2024-03-25T17:35:08;3.95;;;2.08;;
16820;SDS011;8527;49.740;6.604;2024-03-25T17:40:07;5.10;;;2.20;;
16820;SDS011;8527;49.740;6.604;2024-03-25T17:45:05;4.00;;;1.77;;
16820;SDS011;8527;49.740;6.604;2024-03-25T17:50:02;3.70;;;2.20;;
16820;SDS011;8527;49.740;6.604;2024-03-25T17:55:01;4.17;;;1.70;;
16820;SDS011;8527;49.740;6.604;2024-03-25T17:59:56;3.17;;;1.58;;
16820;SDS011;8527;49.740;6.604;2024-03-25T18:04:52;5.82;;;1.95;;
16820;SDS011;8527;49.740;6.604;2024-03-25T18:09:48;3.95;;;2.03;;
16820;SDS011;8527;49.740;6.604;2024-03-25T18:14:49;5.38;;;2.42;;
16820;SDS011;8527;49.740;6.604;2024-03-25T18:19:45;5.03;;;2.60;;
16820;SDS011;8527;49.740;6.604;2024-03-25T18:24:43;4.15;;;2.17;;
16820;SDS011;8527;49.740;6.604;2024-03-25T18:29:39;4.35;;;2.40;;
16820;SDS011;8527;49.740;6.604;2024-03-25T18:34:38;5.07;;;2.30;;
16820;SDS011;8527;49.740;6.604;2024-03-25T18:39:36;7.22;;;2.53;;
16820;SDS011;8527;49.740;6.604;2024-03-25T18:44:32;3.88;;;2.17;;
16820;SDS011;8527;49.740;6.604;2024-03-25T18:49:28;3.60;;;2.10;;
16820;SDS011;8527;49.740;6.604;2024-03-25T18:54:27;3.28;;;1.90;;
16820;SDS011;8527;49.740;6.604;2024-03-25T18:59:23;3.53;;;2.20;;
16820;SDS011;8527;49.740;6.604;2024-03-25T19:04:21;6.53;;;2.35;;
16820;SDS011;8527;49.740;6.604;2024-03-25T19:09:16;7.00;;;2.38;;
16820;SDS011;8527;49.740;6.604;2024-03-25T19:14:15;4.20;;;2.33;;
16820;SDS011;8527;49.740;6.604;2024-03-25T19:19:13;6.90;;;2.10;;
16820;SDS011;8527;49.740;6.604;2024-03-25T19:24:09;5.53;;;2.05;;
16820;SDS011;8527;49.740;6.604;2024-03-25T19:29:05;3.85;;;1.95;;
16820;SDS011;8527;49.740;6.604;2024-03-25T19:34:06;4.45;;;2.00;;
16820;SDS011;8527;49.740;6.604;2024-03-25T19:39:02;3.75;;;1.90;;
16820;SDS011;8527;49.740;6.604;2024-03-25T19:43:58;3.45;;;2.47;;
16820;SDS011;8527;49.740;6.604;2024-03-25T19:48:54;5.85;;;2.50;;
16820;SDS011;8527;49.740;6.604;2024-03-25T19:53:54;5.47;;;2.10;;
16820;SDS011;8527;49.740;6.604;2024-03-25T19:58:50;5.25;;;2.17;;
16820;SDS011;8527;49.740;6.604;2024-03-25T20:03:52;6.05;;;2.97;;
16820;SDS011;8527;49.740;6.604;2024-03-25T20:08:47;5.82;;;2.35;;
16820;SDS011;8527;49.740;6.604;2024-03-25T20:13:47;5.88;;;1.92;;
16820;SDS011;8527;49.740;6.604;2024-03-25T20:18:46;5.38;;;2.63;;
16820;SDS011;8527;49.740;6.604;2024-03-25T20:23:42;4.72;;;1.95;;
16820;SDS011;8527;49.740;6.604;2024-03-25T20:28:38;5.72;;;2.33;;
16820;SDS011;8527;49.740;6.604;2024-03-25T20:33:37;9.13;;;2.53;;
16820;SDS011;8527;49.740;6.604;2024-03-25T20:38:33;5.88;;;2.72;;
16820;SDS011;8527;49.740;6.604;2024-03-25T20:43:29;5.65;;;3.00;;
16820;SDS011;8527;49.740;6.604;2024-03-25T20:48:24;4.10;;;2.75;;
16820;SDS011;8527;49.740;6.604;2024-03-25T20:53:23;5.72;;;3.13;;
16820;SDS011;8527;49.740;6.604;2024-03-25T20:58:19;6.70;;;2.95;;
16820;SDS011;8527;49.740;6.604;2024-03-25T21:03:15;5.57;;;2.88;;
16820;SDS011;8527;49.740;6.604;2024-03-25T21:08:10;6.30;;;2.67;;
16820;SDS011;8527;49.740;6.604;2024-03-25T21:13:11;6.30;;;2.83;;
16820;SDS011;8527;49.740;6.604;2024-03-25T21:18:10;9.95;;;3.60;;
16820;SDS011;8527;49.740;6.604;2024-03-25T21:23:06;3.65;;;2.30;;
16820;SDS011;8527;49.740;6.604;2024-03-25T21:28:02;3.90;;;2.00;;
16820;SDS011;8527;49.740;6.604;2024-03-25T21:33:01;3.72;;;2.17;;
16820;SDS011;8527;49.740;6.604;2024-03-25T21:37:57;5.78;;;2.20;;
16820;SDS011;8527;49.740;6.604;2024-03-25T21:42:53;8.43;;;2.50;;
16820;SDS011;8527;49.740;6.604;2024-03-25T21:47:49;6.45;;;2.95;;
16820;SDS011;8527;49.740;6.604;2024-03-25T21:52:50;7.30;;;2.90;;
16820;SDS011;8527;49.740;6.604;2024-03-25T21:57:46;7.85;;;2.80;;
16820;SDS011;8527;49.740;6.604;2024-03-25T22:02:42;6.15;;;3.22;;
16820;SDS011;8527;49.740;6.604;2024-03-25T22:07:41;7.63;;;3.47;;
16820;SDS011;8527;49.740;6.604;2024-03-25T22:12:39;9.50;;;3.50;;
16820;SDS011;8527;49.740;6.604;2024-03-25T22:17:35;7.63;;;2.80;;
16820;SDS011;8527;49.740;6.604;2024-03-25T22:22:31;5.47;;;3.10;;
16820;SDS011;8527;49.740;6.604;2024-03-25T22:27:26;6.47;;;3.00;;
16820;SDS011;8527;49.740;6.604;2024-03-25T22:32:27;4.45;;;2.58;;
16820;SDS011;8527;49.740;6.604;2024-03-25T22:37:25;5.63;;;2.40;;
16820;SDS011;8527;49.740;6.604;2024-03-25T22:42:20;6.97;;;2.70;;
16820;SDS011;8527;49.740;6.604;2024-03-25T22:47:16;4.20;;;2.38;;
16820;SDS011;8527;49.740;6.604;2024-03-25T22:52:18;7.30;;;2.60;;
16820;SDS011;8527;49.740;6.604;2024-03-25T22:57:14;5.68;;;2.55;;
16820;SDS011;8527;49.740;6.604;2024-03-25T23:02:10;5.70;;;2.80;;
16820;SDS011;8527;49.740;6.604;2024-03-25T23:07:05;7.60;;;2.85;;
16820;SDS011;8527;49.740;6.604;2024-03-25T23:12:04;6.15;;;2.72;;
16820;SDS011;8527;49.740;6.604;2024-03-25T23:17:01;6.07;;;2.53;;
16820;SDS011;8527;49.740;6.604;2024-03-25T23:21:57;4.88;;;2.50;;
16820;SDS011;8527;49.740;6.604;2024-03-25T23:26:53;3.80;;;2.00;;
16820;SDS011;8527;49.740;6.604;2024-03-25T23:31:55;7.28;;;2.00;;
16820;SDS011;8527;49.740;6.604;2024-03-25T23:36:54;4.80;;;1.70;;
16820;SDS011;8527;49.740;6.604;2024-03-25T23:41:51;3.30;;;2.40;;
16820;SDS011;8527;49.740;6.604;2024-03-25T23:46:47;3.72;;;1.88;;
16820;SDS011;8527;49.740;6.604;2024-03-25T23:51:46;2.73;;;1.83;;
16820;SDS011;8527;49.740;6.604;2024-03-25T23:56:44;2.63;;;2.10;;
